sensor_id;sensor_type;location;lat;lon;timestamp;P1;durP1;ratioP1;P2;durP2;ratioP2
46563;SDS011;32291;52.010;4.446;2022-10-31T00:00:05;3.67;;;2.90;;
46563;SDS011;32291;52.010;4.446;2022-10-31T00:01:36;3.40;;;2.95;;
46563;SDS011;32291;52.010;4.446;2022-10-31T00:02:45;4.72;;;2.88;;
46563;SDS011;32291;52.010;4.446;2022-10-31T00:03:53;3.80;;;2.78;;
46563;SDS011;32291;52.010;4.446;2022-10-31T00:05:00;2.83;;;2.60;;
46563;SDS011;32291;52.010;4.446;2022-10-31T00:06:08;4.60;;;2.78;;
46563;SDS011;32291;52.010;4.446;2022-10-31T00:07:15;5.00;;;2.90;;
46563;SDS011;32291;52.010;4.446;2022-10-31T00:08:22;3.25;;;2.95;;
46563;SDS011;32291;52.010;4.446;2022-10-31T00:09:29;4.82;;;3.33;;
46563;SDS011;32291;52.010;4.446;2022-10-31T00:10:37;4.28;;;2.63;;
46563;SDS011;32291;52.010;4.446;2022-10-31T00:11:46;3.20;;;2.90;;
46563;SDS011;32291;52.010;4.446;2022-10-31T00:12:53;5.03;;;3.10;;
46563;SDS011;32291;52.010;4.446;2022-10-31T00:13:56;4.57;;;3.00;;
46563;SDS011;32291;52.010;4.446;2022-10-31T00:15:05;4.22;;;3.00;;
46563;SDS011;32291;52.010;4.446;2022-10-31T00:16:13;4.78;;;2.83;;
46563;SDS011;32291;52.010;4.446;2022-10-31T00:17:29;4.20;;;2.60;;
46563;SDS011;32291;52.010;4.446;2022-10-31T00:18:36;3.50;;;2.45;;
46563;SDS011;32291;52.010;4.446;2022-10-31T00:19:38;6.10;;;2.60;;
46563;SDS011;32291;52.010;4.446;2022-10-31T00:20:45;4.10;;;2.70;;
46563;SDS011;32291;52.010;4.446;2022-10-31T00:21:52;4.28;;;2.58;;
46563;SDS011;32291;52.010;4.446;2022-10-31T00:23:00;5.10;;;2.90;;
46563;SDS011;32291;52.010;4.446;2022-10-31T00:24:08;4.32;;;2.88;;
46563;SDS011;32291;52.010;4.446;2022-10-31T00:25:17;3.80;;;2.70;;
46563;SDS011;32291;52.010;4.446;2022-10-31T00:26:26;7.65;;;4.25;;
46563;SDS011;32291;52.010;4.446;2022-10-31T00:27:38;5.55;;;2.92;;
46563;SDS011;32291;52.010;4.446;2022-10-31T00:28:45;2.97;;;2.67;;
46563;SDS011;32291;52.010;4.446;2022-10-31T00:29:53;5.40;;;2.88;;
46563;SDS011;32291;52.010;4.446;2022-10-31T00:31:00;5.60;;;2.85;;
46563;SDS011;32291;52.010;4.446;2022-10-31T00:32:14;6.47;;;3.38;;
46563;SDS011;32291;52.010;4.446;2022-10-31T00:33:17;3.50;;;2.55;;
46563;SDS011;32291;52.010;4.446;2022-10-31T00:34:24;5.05;;;2.83;;
46563;SDS011;32291;52.010;4.446;2022-10-31T00:35:31;5.97;;;3.35;;
46563;SDS011;32291;52.010;4.446;2022-10-31T00:36:39;3.28;;;2.60;;
46563;SDS011;32291;52.010;4.446;2022-10-31T00:37:47;4.68;;;3.08;;
46563;SDS011;32291;52.010;4.446;2022-10-31T00:38:54;3.45;;;3.05;;
46563;SDS011;32291;52.010;4.446;2022-10-31T00:40:02;5.03;;;2.95;;
46563;SDS011;32291;52.010;4.446;2022-10-31T00:41:10;4.07;;;3.20;;
46563;SDS011;32291;52.010;4.446;2022-10-31T00:42:21;3.25;;;2.90;;
46563;SDS011;32291;52.010;4.446;2022-10-31T00:43:28;5.88;;;3.65;;
46563;SDS011;32291;52.010;4.446;2022-10-31T00:44:35;3.85;;;3.03;;
46563;SDS011;32291;52.010;4.446;2022-10-31T00:45:37;3.40;;;3.10;;
46563;SDS011;32291;52.010;4.446;2022-10-31T00:46:40;3.75;;;3.17;;
46563;SDS011;32291;52.010;4.446;2022-10-31T00:47:47;5.80;;;3.08;;
46563;SDS011;32291;52.010;4.446;2022-10-31T00:48:49;4.75;;;3.13;;
46563;SDS011;32291;52.010;4.446;2022-10-31T00:49:57;5.25;;;3.22;;
46563;SDS011;32291;52.010;4.446;2022-10-31T00:51:04;5.10;;;3.70;;
46563;SDS011;32291;52.010;4.446;2022-10-31T00:52:12;4.20;;;2.92;;
46563;SDS011;32291;52.010;4.446;2022-10-31T00:53:19;4.47;;;3.05;;
46563;SDS011;32291;52.010;4.446;2022-10-31T00:54:26;4.97;;;3.35;;
46563;SDS011;32291;52.010;4.446;2022-10-31T00:55:34;5.60;;;3.30;;
46563;SDS011;32291;52.010;4.446;2022-10-31T00:56:41;5.75;;;3.53;;
46563;SDS011;32291;52.010;4.446;2022-10-31T00:57:48;4.70;;;3.30;;
46563;SDS011;32291;52.010;4.446;2022-10-31T00:58:55;5.30;;;3.50;;
46563;SDS011;32291;52.010;4.446;2022-10-31T01:00:02;4.15;;;3.35;;
46563;SDS011;32291;52.010;4.446;2022-10-31T01:01:11;5.30;;;3.38;;
46563;SDS011;32291;52.010;4.446;2022-10-31T01:02:18;3.42;;;3.13;;
46563;SDS011;32291;52.010;4.446;2022-10-31T01:03:29;3.63;;;3.05;;
46563;SDS011;32291;52.010;4.446;2022-10-31T01:04:39;6.57;;;3.72;;
46563;SDS011;32291;52.010;4.446;2022-10-31T01:05:54;4.00;;;3.38;;
46563;SDS011;32291;52.010;4.446;2022-10-31T01:07:07;4.35;;;3.03;;
46563;SDS011;32291;52.010;4.446;2022-10-31T01:08:14;4.55;;;3.65;;
46563;SDS011;32291;52.010;4.446;2022-10-31T01:09:22;3.60;;;3.30;;
46563;SDS011;32291;52.010;4.446;2022-10-31T01:10:29;4.47;;;3.67;;
46563;SDS011;32291;52.010;4.446;2022-10-31T01:11:36;3.55;;;3.22;;
46563;SDS011;32291;52.010;4.446;2022-10-31T01:12:44;4.97;;;3.65;;
46563;SDS011;32291;52.010;4.446;2022-10-31T01:13:55;4.32;;;3.92;;
46563;SDS011;32291;52.010;4.446;2022-10-31T01:15:02;4.28;;;3.50;;
46563;SDS011;32291;52.010;4.446;2022-10-31T01:16:12;7.15;;;3.83;;
46563;SDS011;32291;52.010;4.446;2022-10-31T01:17:19;5.32;;;4.10;;
46563;SDS011;32291;52.010;4.446;2022-10-31T01:18:27;5.15;;;3.72;;
46563;SDS011;32291;52.010;4.446;2022-10-31T01:19:35;4.05;;;3.33;;
46563;SDS011;32291;52.010;4.446;2022-10-31T01:20:42;4.88;;;3.83;;
46563;SDS011;32291;52.010;4.446;2022-10-31T01:21:50;5.43;;;3.30;;
46563;SDS011;32291;52.010;4.446;2022-10-31T01:23:01;4.63;;;3.78;;
46563;SDS011;32291;52.010;4.446;2022-10-31T01:24:08;5.28;;;3.75;;
46563;SDS011;32291;52.010;4.446;2022-10-31T01:25:15;4.65;;;3.65;;
46563;SDS011;32291;52.010;4.446;2022-10-31T01:26:24;4.63;;;3.65;;
46563;SDS011;32291;52.010;4.446;2022-10-31T01:27:32;4.45;;;3.75;;
46563;SDS011;32291;52.010;4.446;2022-10-31T01:28:43;4.45;;;4.03;;
46563;SDS011;32291;52.010;4.446;2022-10-31T01:30:04;4.72;;;3.80;;
46563;SDS011;32291;52.010;4.446;2022-10-31T01:31:13;7.63;;;4.10;;
46563;SDS011;32291;52.010;4.446;2022-10-31T01:32:17;4.55;;;3.70;;
46563;SDS011;32291;52.010;4.446;2022-10-31T01:33:24;6.22;;;4.30;;
46563;SDS011;32291;52.010;4.446;2022-10-31T01:34:31;4.38;;;3.90;;
46563;SDS011;32291;52.010;4.446;2022-10-31T01:35:38;6.85;;;5.28;;
46563;SDS011;32291;52.010;4.446;2022-10-31T01:36:46;4.30;;;3.40;;
46563;SDS011;32291;52.010;4.446;2022-10-31T01:37:57;4.00;;;3.20;;
46563;SDS011;32291;52.010;4.446;2022-10-31T01:39:09;4.63;;;3.45;;
46563;SDS011;32291;52.010;4.446;2022-10-31T01:40:16;5.28;;;3.15;;
46563;SDS011;32291;52.010;4.446;2022-10-31T01:41:25;5.38;;;4.53;;
46563;SDS011;32291;52.010;4.446;2022-10-31T01:42:36;4.95;;;4.20;;
46563;SDS011;32291;52.010;4.446;2022-10-31T01:45:09;5.05;;;4.10;;
46563;SDS011;32291;52.010;4.446;2022-10-31T01:46:19;5.40;;;4.65;;
46563;SDS011;32291;52.010;4.446;2022-10-31T01:47:46;4.38;;;3.97;;
46563;SDS011;32291;52.010;4.446;2022-10-31T01:48:55;4.95;;;4.00;;
46563;SDS011;32291;52.010;4.446;2022-10-31T01:50:33;5.47;;;4.97;;
46563;SDS011;32291;52.010;4.446;2022-10-31T01:51:49;6.70;;;5.05;;
46563;SDS011;32291;52.010;4.446;2022-10-31T01:53:00;4.57;;;4.18;;
46563;SDS011;32291;52.010;4.446;2022-10-31T01:54:10;5.53;;;4.40;;
46563;SDS011;32291;52.010;4.446;2022-10-31T01:55:31;5.68;;;4.03;;
46563;SDS011;32291;52.010;4.446;2022-10-31T01:56:42;4.72;;;4.10;;
46563;SDS011;32291;52.010;4.446;2022-10-31T01:58:04;4.30;;;3.60;;
46563;SDS011;32291;52.010;4.446;2022-10-31T01:59:23;4.53;;;3.83;;
46563;SDS011;32291;52.010;4.446;2022-10-31T02:00:41;5.22;;;4.72;;
46563;SDS011;32291;52.010;4.446;2022-10-31T02:01:57;5.07;;;4.43;;
46563;SDS011;32291;52.010;4.446;2022-10-31T02:03:04;5.35;;;3.95;;
46563;SDS011;32291;52.010;4.446;2022-10-31T02:04:11;4.70;;;4.18;;
46563;SDS011;32291;52.010;4.446;2022-10-31T02:05:20;4.95;;;4.53;;
46563;SDS011;32291;52.010;4.446;2022-10-31T02:06:48;6.57;;;5.93;;
46563;SDS011;32291;52.010;4.446;2022-10-31T02:09:18;9.38;;;6.65;;
46563;SDS011;32291;52.010;4.446;2022-10-31T02:10:30;6.47;;;5.75;;
46563;SDS011;32291;52.010;4.446;2022-10-31T02:11:42;6.53;;;5.35;;
46563;SDS011;32291;52.010;4.446;2022-10-31T02:12:51;6.10;;;5.50;;
46563;SDS011;32291;52.010;4.446;2022-10-31T02:14:00;6.95;;;5.95;;
46563;SDS011;32291;52.010;4.446;2022-10-31T02:15:09;5.63;;;5.13;;
46563;SDS011;32291;52.010;4.446;2022-10-31T02:16:16;7.85;;;5.50;;
46563;SDS011;32291;52.010;4.446;2022-10-31T02:17:24;6.90;;;5.50;;
46563;SDS011;32291;52.010;4.446;2022-10-31T02:18:31;7.57;;;5.97;;
46563;SDS011;32291;52.010;4.446;2022-10-31T02:21:29;6.15;;;5.30;;
46563;SDS011;32291;52.010;4.446;2022-10-31T02:23:27;5.85;;;5.13;;
46563;SDS011;32291;52.010;4.446;2022-10-31T02:27:28;6.03;;;5.10;;
46563;SDS011;32291;52.010;4.446;2022-10-31T02:29:13;6.85;;;5.30;;
46563;SDS011;32291;52.010;4.446;2022-10-31T02:37:49;7.82;;;6.53;;
46563;SDS011;32291;52.010;4.446;2022-10-31T02:39:24;6.55;;;5.95;;
46563;SDS011;32291;52.010;4.446;2022-10-31T02:42:33;9.95;;;7.60;;
46563;SDS011;32291;52.010;4.446;2022-10-31T02:45:39;8.43;;;7.43;;
46563;SDS011;32291;52.010;4.446;2022-10-31T02:46:53;9.85;;;7.10;;
46563;SDS011;32291;52.010;4.446;2022-10-31T02:48:14;11.23;;;8.13;;
46563;SDS011;32291;52.010;4.446;2022-10-31T02:51:10;10.60;;;9.40;;
46563;SDS011;32291;52.010;4.446;2022-10-31T02:52:27;10.10;;;9.07;;
46563;SDS011;32291;52.010;4.446;2022-10-31T02:53:37;10.35;;;8.85;;
46563;SDS011;32291;52.010;4.446;2022-10-31T02:54:46;9.80;;;8.80;;
46563;SDS011;32291;52.010;4.446;2022-10-31T02:56:14;11.80;;;9.77;;
46563;SDS011;32291;52.010;4.446;2022-10-31T02:57:26;12.43;;;11.10;;
46563;SDS011;32291;52.010;4.446;2022-10-31T02:58:43;15.82;;;11.10;;
46563;SDS011;32291;52.010;4.446;2022-10-31T03:00:06;13.57;;;10.93;;
46563;SDS011;32291;52.010;4.446;2022-10-31T03:06:23;12.32;;;10.48;;
46563;SDS011;32291;52.010;4.446;2022-10-31T03:09:50;11.10;;;9.90;;
46563;SDS011;32291;52.010;4.446;2022-10-31T03:11:17;11.00;;;9.90;;
46563;SDS011;32291;52.010;4.446;2022-10-31T03:13:40;12.85;;;10.85;;
46563;SDS011;32291;52.010;4.446;2022-10-31T03:17:50;19.63;;;12.63;;
46563;SDS011;32291;52.010;4.446;2022-10-31T03:19:39;17.73;;;13.38;;
46563;SDS011;32291;52.010;4.446;2022-10-31T03:20:50;21.00;;;12.82;;
46563;SDS011;32291;52.010;4.446;2022-10-31T03:22:23;17.48;;;12.30;;
46563;SDS011;32291;52.010;4.446;2022-10-31T03:23:37;19.05;;;13.80;;
46563;SDS011;32291;52.010;4.446;2022-10-31T03:24:50;16.85;;;13.32;;
46563;SDS011;32291;52.010;4.446;2022-10-31T03:26:03;18.50;;;14.30;;
46563;SDS011;32291;52.010;4.446;2022-10-31T03:27:18;13.85;;;12.02;;
46563;SDS011;32291;52.010;4.446;2022-10-31T03:28:43;17.50;;;11.80;;
46563;SDS011;32291;52.010;4.446;2022-10-31T03:29:58;20.65;;;14.18;;
46563;SDS011;32291;52.010;4.446;2022-10-31T03:31:30;18.55;;;14.00;;
46563;SDS011;32291;52.010;4.446;2022-10-31T03:32:48;17.25;;;12.90;;
46563;SDS011;32291;52.010;4.446;2022-10-31T03:34:02;18.10;;;13.32;;
46563;SDS011;32291;52.010;4.446;2022-10-31T03:35:08;17.67;;;13.43;;
46563;SDS011;32291;52.010;4.446;2022-10-31T03:36:21;16.77;;;13.50;;
46563;SDS011;32291;52.010;4.446;2022-10-31T03:37:30;17.75;;;14.95;;
46563;SDS011;32291;52.010;4.446;2022-10-31T03:38:40;15.60;;;13.38;;
46563;SDS011;32291;52.010;4.446;2022-10-31T03:39:52;20.65;;;15.50;;
46563;SDS011;32291;52.010;4.446;2022-10-31T03:41:07;20.13;;;16.88;;
46563;SDS011;32291;52.010;4.446;2022-10-31T03:42:28;25.88;;;18.58;;
46563;SDS011;32291;52.010;4.446;2022-10-31T03:43:42;27.05;;;18.58;;
46563;SDS011;32291;52.010;4.446;2022-10-31T03:45:06;24.98;;;19.08;;
46563;SDS011;32291;52.010;4.446;2022-10-31T03:46:27;27.60;;;20.13;;
46563;SDS011;32291;52.010;4.446;2022-10-31T03:47:30;29.45;;;22.42;;
46563;SDS011;32291;52.010;4.446;2022-10-31T03:48:39;32.65;;;21.25;;
46563;SDS011;32291;52.010;4.446;2022-10-31T03:49:46;28.25;;;22.67;;
46563;SDS011;32291;52.010;4.446;2022-10-31T03:50:56;28.20;;;21.98;;
46563;SDS011;32291;52.010;4.446;2022-10-31T03:52:23;30.73;;;23.58;;
46563;SDS011;32291;52.010;4.446;2022-10-31T03:54:12;30.45;;;22.65;;
46563;SDS011;32291;52.010;4.446;2022-10-31T03:55:51;33.25;;;22.90;;
46563;SDS011;32291;52.010;4.446;2022-10-31T03:59:13;33.22;;;24.05;;
46563;SDS011;32291;52.010;4.446;2022-10-31T04:00:35;34.17;;;24.33;;
46563;SDS011;32291;52.010;4.446;2022-10-31T04:01:51;32.03;;;24.15;;
46563;SDS011;32291;52.010;4.446;2022-10-31T04:03:12;33.80;;;25.15;;
46563;SDS011;32291;52.010;4.446;2022-10-31T04:04:25;34.28;;;24.27;;
46563;SDS011;32291;52.010;4.446;2022-10-31T04:05:35;32.35;;;24.23;;
46563;SDS011;32291;52.010;4.446;2022-10-31T04:06:47;34.30;;;25.25;;
46563;SDS011;32291;52.010;4.446;2022-10-31T04:07:58;31.50;;;24.10;;
46563;SDS011;32291;52.010;4.446;2022-10-31T04:09:12;37.35;;;25.00;;
46563;SDS011;32291;52.010;4.446;2022-10-31T04:10:22;29.42;;;22.08;;
46563;SDS011;32291;52.010;4.446;2022-10-31T04:11:29;34.08;;;24.58;;
46563;SDS011;32291;52.010;4.446;2022-10-31T04:12:48;35.65;;;23.98;;
46563;SDS011;32291;52.010;4.446;2022-10-31T04:14:07;28.15;;;22.30;;
46563;SDS011;32291;52.010;4.446;2022-10-31T04:15:18;32.55;;;23.55;;
46563;SDS011;32291;52.010;4.446;2022-10-31T04:16:29;33.83;;;24.17;;
46563;SDS011;32291;52.010;4.446;2022-10-31T04:17:33;32.90;;;23.20;;
46563;SDS011;32291;52.010;4.446;2022-10-31T04:18:48;29.73;;;21.33;;
46563;SDS011;32291;52.010;4.446;2022-10-31T04:19:55;24.88;;;19.85;;
46563;SDS011;32291;52.010;4.446;2022-10-31T04:21:07;29.38;;;21.20;;
46563;SDS011;32291;52.010;4.446;2022-10-31T04:22:14;30.27;;;21.65;;
46563;SDS011;32291;52.010;4.446;2022-10-31T04:23:18;31.15;;;20.65;;
46563;SDS011;32291;52.010;4.446;2022-10-31T04:24:26;28.13;;;20.77;;
46563;SDS011;32291;52.010;4.446;2022-10-31T04:25:34;31.50;;;22.20;;
46563;SDS011;32291;52.010;4.446;2022-10-31T04:26:41;26.67;;;20.30;;
46563;SDS011;32291;52.010;4.446;2022-10-31T04:27:48;23.73;;;19.65;;
46563;SDS011;32291;52.010;4.446;2022-10-31T04:28:55;24.77;;;19.73;;
46563;SDS011;32291;52.010;4.446;2022-10-31T04:30:02;30.17;;;21.25;;
46563;SDS011;32291;52.010;4.446;2022-10-31T04:31:11;24.15;;;18.08;;
46563;SDS011;32291;52.010;4.446;2022-10-31T04:32:19;27.42;;;20.13;;
46563;SDS011;32291;52.010;4.446;2022-10-31T04:33:26;26.95;;;19.20;;
46563;SDS011;32291;52.010;4.446;2022-10-31T04:34:33;23.48;;;18.25;;
46563;SDS011;32291;52.010;4.446;2022-10-31T04:35:40;25.73;;;18.77;;
46563;SDS011;32291;52.010;4.446;2022-10-31T04:36:48;24.80;;;19.73;;
46563;SDS011;32291;52.010;4.446;2022-10-31T04:37:55;23.40;;;18.73;;
46563;SDS011;32291;52.010;4.446;2022-10-31T04:38:57;20.77;;;18.05;;
46563;SDS011;32291;52.010;4.446;2022-10-31T04:40:04;21.52;;;17.50;;
46563;SDS011;32291;52.010;4.446;2022-10-31T04:41:12;24.13;;;17.50;;
46563;SDS011;32291;52.010;4.446;2022-10-31T04:42:14;23.80;;;17.90;;
46563;SDS011;32291;52.010;4.446;2022-10-31T04:43:21;23.83;;;18.13;;
46563;SDS011;32291;52.010;4.446;2022-10-31T04:44:29;25.80;;;18.38;;
46563;SDS011;32291;52.010;4.446;2022-10-31T04:45:36;23.70;;;20.07;;
46563;SDS011;32291;52.010;4.446;2022-10-31T04:46:44;27.83;;;18.80;;
46563;SDS011;32291;52.010;4.446;2022-10-31T04:47:51;23.98;;;19.20;;
46563;SDS011;32291;52.010;4.446;2022-10-31T04:48:58;25.33;;;18.73;;
46563;SDS011;32291;52.010;4.446;2022-10-31T04:50:01;29.40;;;19.65;;
46563;SDS011;32291;52.010;4.446;2022-10-31T04:51:09;24.15;;;18.92;;
46563;SDS011;32291;52.010;4.446;2022-10-31T04:52:11;32.65;;;22.35;;
46563;SDS011;32291;52.010;4.446;2022-10-31T04:53:18;28.10;;;20.75;;
46563;SDS011;32291;52.010;4.446;2022-10-31T04:54:25;27.00;;;19.52;;
46563;SDS011;32291;52.010;4.446;2022-10-31T04:55:32;26.10;;;19.40;;
46563;SDS011;32291;52.010;4.446;2022-10-31T04:56:42;28.45;;;20.02;;
46563;SDS011;32291;52.010;4.446;2022-10-31T04:57:49;25.13;;;19.30;;
46563;SDS011;32291;52.010;4.446;2022-10-31T04:58:57;26.67;;;19.17;;
46563;SDS011;32291;52.010;4.446;2022-10-31T05:00:04;29.73;;;20.23;;
46563;SDS011;32291;52.010;4.446;2022-10-31T05:01:12;31.60;;;21.45;;
46563;SDS011;32291;52.010;4.446;2022-10-31T05:02:19;31.88;;;22.13;;
46563;SDS011;32291;52.010;4.446;2022-10-31T05:03:26;29.83;;;21.75;;
46563;SDS011;32291;52.010;4.446;2022-10-31T05:04:33;32.65;;;22.25;;
46563;SDS011;32291;52.010;4.446;2022-10-31T05:05:41;30.58;;;21.85;;
46563;SDS011;32291;52.010;4.446;2022-10-31T05:06:43;32.83;;;22.73;;
46563;SDS011;32291;52.010;4.446;2022-10-31T05:07:46;33.25;;;20.95;;
46563;SDS011;32291;52.010;4.446;2022-10-31T05:08:55;31.58;;;20.80;;
46563;SDS011;32291;52.010;4.446;2022-10-31T05:09:57;36.83;;;23.38;;
46563;SDS011;32291;52.010;4.446;2022-10-31T05:11:04;34.53;;;22.75;;
46563;SDS011;32291;52.010;4.446;2022-10-31T05:12:11;29.95;;;21.48;;
46563;SDS011;32291;52.010;4.446;2022-10-31T05:13:18;26.23;;;21.05;;
46563;SDS011;32291;52.010;4.446;2022-10-31T05:14:26;30.15;;;21.38;;
46563;SDS011;32291;52.010;4.446;2022-10-31T05:15:33;34.22;;;23.17;;
46563;SDS011;32291;52.010;4.446;2022-10-31T05:16:40;33.97;;;23.25;;
46563;SDS011;32291;52.010;4.446;2022-10-31T05:17:47;33.05;;;23.52;;
46563;SDS011;32291;52.010;4.446;2022-10-31T05:18:55;32.00;;;22.33;;
46563;SDS011;32291;52.010;4.446;2022-10-31T05:20:02;33.20;;;23.35;;
46563;SDS011;32291;52.010;4.446;2022-10-31T05:21:10;32.78;;;22.75;;
46563;SDS011;32291;52.010;4.446;2022-10-31T05:22:17;29.60;;;21.13;;
46563;SDS011;32291;52.010;4.446;2022-10-31T05:23:24;33.05;;;22.48;;
46563;SDS011;32291;52.010;4.446;2022-10-31T05:24:31;33.30;;;20.48;;
46563;SDS011;32291;52.010;4.446;2022-10-31T05:25:39;36.58;;;21.90;;
46563;SDS011;32291;52.010;4.446;2022-10-31T05:26:47;27.23;;;19.60;;
46563;SDS011;32291;52.010;4.446;2022-10-31T05:27:50;27.20;;;19.27;;
46563;SDS011;32291;52.010;4.446;2022-10-31T05:29:00;26.80;;;18.80;;
46563;SDS011;32291;52.010;4.446;2022-10-31T05:30:08;23.63;;;18.23;;
46563;SDS011;32291;52.010;4.446;2022-10-31T05:31:19;23.13;;;18.75;;
46563;SDS011;32291;52.010;4.446;2022-10-31T05:32:26;26.02;;;18.67;;
46563;SDS011;32291;52.010;4.446;2022-10-31T05:33:29;22.83;;;18.23;;
46563;SDS011;32291;52.010;4.446;2022-10-31T05:34:36;21.98;;;17.75;;
46563;SDS011;32291;52.010;4.446;2022-10-31T05:35:38;27.42;;;19.83;;
46563;SDS011;32291;52.010;4.446;2022-10-31T05:36:45;22.33;;;18.67;;
46563;SDS011;32291;52.010;4.446;2022-10-31T05:37:47;21.38;;;17.92;;
46563;SDS011;32291;52.010;4.446;2022-10-31T05:38:55;22.23;;;17.63;;
46563;SDS011;32291;52.010;4.446;2022-10-31T05:39:57;22.50;;;16.88;;
46563;SDS011;32291;52.010;4.446;2022-10-31T05:41:04;22.88;;;17.17;;
46563;SDS011;32291;52.010;4.446;2022-10-31T05:42:11;21.50;;;15.95;;
46563;SDS011;32291;52.010;4.446;2022-10-31T05:43:19;20.98;;;16.60;;
46563;SDS011;32291;52.010;4.446;2022-10-31T05:44:21;19.30;;;17.00;;
46563;SDS011;32291;52.010;4.446;2022-10-31T05:45:23;22.08;;;16.00;;
46563;SDS011;32291;52.010;4.446;2022-10-31T05:46:26;17.85;;;14.20;;
46563;SDS011;32291;52.010;4.446;2022-10-31T05:47:28;20.55;;;16.13;;
46563;SDS011;32291;52.010;4.446;2022-10-31T05:48:30;20.55;;;15.70;;
46563;SDS011;32291;52.010;4.446;2022-10-31T05:49:32;21.83;;;17.20;;
46563;SDS011;32291;52.010;4.446;2022-10-31T05:50:39;21.00;;;16.48;;
46563;SDS011;32291;52.010;4.446;2022-10-31T05:51:47;19.42;;;15.45;;
46563;SDS011;32291;52.010;4.446;2022-10-31T05:54:11;19.95;;;16.67;;
46563;SDS011;32291;52.010;4.446;2022-10-31T05:55:13;20.58;;;15.75;;
46563;SDS011;32291;52.010;4.446;2022-10-31T05:56:21;24.52;;;16.65;;
46563;SDS011;32291;52.010;4.446;2022-10-31T05:57:28;21.48;;;16.65;;
46563;SDS011;32291;52.010;4.446;2022-10-31T05:58:38;21.17;;;17.55;;
46563;SDS011;32291;52.010;4.446;2022-10-31T05:59:45;25.10;;;19.20;;
46563;SDS011;32291;52.010;4.446;2022-10-31T06:00:53;23.08;;;18.02;;
46563;SDS011;32291;52.010;4.446;2022-10-31T06:02:00;27.98;;;19.52;;
46563;SDS011;32291;52.010;4.446;2022-10-31T06:03:03;22.58;;;18.02;;
46563;SDS011;32291;52.010;4.446;2022-10-31T06:04:10;21.30;;;17.17;;
46563;SDS011;32291;52.010;4.446;2022-10-31T06:05:17;21.98;;;17.77;;
46563;SDS011;32291;52.010;4.446;2022-10-31T06:06:24;22.90;;;16.90;;
46563;SDS011;32291;52.010;4.446;2022-10-31T06:07:32;20.42;;;16.88;;
46563;SDS011;32291;52.010;4.446;2022-10-31T06:08:41;25.38;;;19.15;;
46563;SDS011;32291;52.010;4.446;2022-10-31T06:09:48;25.27;;;18.55;;
46563;SDS011;32291;52.010;4.446;2022-10-31T06:10:56;22.55;;;17.02;;
46563;SDS011;32291;52.010;4.446;2022-10-31T06:12:03;22.90;;;17.70;;
46563;SDS011;32291;52.010;4.446;2022-10-31T06:13:05;23.63;;;17.63;;
46563;SDS011;32291;52.010;4.446;2022-10-31T06:14:12;22.90;;;17.00;;
46563;SDS011;32291;52.010;4.446;2022-10-31T06:15:15;24.15;;;18.88;;
46563;SDS011;32291;52.010;4.446;2022-10-31T06:16:23;24.67;;;18.58;;
46563;SDS011;32291;52.010;4.446;2022-10-31T06:17:30;24.52;;;18.25;;
46563;SDS011;32291;52.010;4.446;2022-10-31T06:18:33;24.50;;;18.98;;
46563;SDS011;32291;52.010;4.446;2022-10-31T06:19:40;24.48;;;17.83;;
46563;SDS011;32291;52.010;4.446;2022-10-31T06:20:47;25.92;;;19.60;;
46563;SDS011;32291;52.010;4.446;2022-10-31T06:21:54;23.83;;;18.23;;
46563;SDS011;32291;52.010;4.446;2022-10-31T06:23:01;24.23;;;18.10;;
46563;SDS011;32291;52.010;4.446;2022-10-31T06:24:09;24.63;;;17.55;;
46563;SDS011;32291;52.010;4.446;2022-10-31T06:25:12;22.73;;;17.45;;
46563;SDS011;32291;52.010;4.446;2022-10-31T06:26:19;29.20;;;19.80;;
46563;SDS011;32291;52.010;4.446;2022-10-31T06:27:26;24.33;;;18.15;;
46563;SDS011;32291;52.010;4.446;2022-10-31T06:28:34;23.48;;;18.67;;
46563;SDS011;32291;52.010;4.446;2022-10-31T06:29:41;29.17;;;20.17;;
46563;SDS011;32291;52.010;4.446;2022-10-31T06:30:48;21.42;;;17.92;;
46563;SDS011;32291;52.010;4.446;2022-10-31T06:31:55;25.75;;;19.35;;
46563;SDS011;32291;52.010;4.446;2022-10-31T06:33:03;29.80;;;20.45;;
46563;SDS011;32291;52.010;4.446;2022-10-31T06:34:10;26.00;;;19.98;;
46563;SDS011;32291;52.010;4.446;2022-10-31T06:35:18;24.27;;;18.70;;
46563;SDS011;32291;52.010;4.446;2022-10-31T06:36:26;27.80;;;19.75;;
46563;SDS011;32291;52.010;4.446;2022-10-31T06:37:33;26.23;;;19.55;;
46563;SDS011;32291;52.010;4.446;2022-10-31T06:38:40;27.83;;;21.73;;
46563;SDS011;32291;52.010;4.446;2022-10-31T06:39:47;25.75;;;19.25;;
46563;SDS011;32291;52.010;4.446;2022-10-31T06:40:49;26.45;;;20.45;;
46563;SDS011;32291;52.010;4.446;2022-10-31T06:41:56;26.10;;;20.58;;
46563;SDS011;32291;52.010;4.446;2022-10-31T06:43:03;28.98;;;20.95;;
46563;SDS011;32291;52.010;4.446;2022-10-31T06:44:10;35.45;;;21.70;;
46563;SDS011;32291;52.010;4.446;2022-10-31T06:45:18;28.77;;;21.42;;
46563;SDS011;32291;52.010;4.446;2022-10-31T06:46:25;31.00;;;22.27;;
46563;SDS011;32291;52.010;4.446;2022-10-31T06:47:32;26.60;;;20.80;;
46563;SDS011;32291;52.010;4.446;2022-10-31T06:48:42;27.85;;;21.17;;
46563;SDS011;32291;52.010;4.446;2022-10-31T06:49:49;35.10;;;22.60;;
46563;SDS011;32291;52.010;4.446;2022-10-31T06:50:57;27.45;;;20.98;;
46563;SDS011;32291;52.010;4.446;2022-10-31T06:52:01;30.83;;;22.80;;
46563;SDS011;32291;52.010;4.446;2022-10-31T06:53:09;32.90;;;21.77;;
46563;SDS011;32291;52.010;4.446;2022-10-31T06:54:16;32.63;;;23.90;;
46563;SDS011;32291;52.010;4.446;2022-10-31T06:55:19;28.10;;;21.30;;
46563;SDS011;32291;52.010;4.446;2022-10-31T06:56:28;35.15;;;23.73;;
46563;SDS011;32291;52.010;4.446;2022-10-31T06:57:35;33.85;;;24.92;;
46563;SDS011;32291;52.010;4.446;2022-10-31T06:58:43;34.75;;;24.67;;
46563;SDS011;32291;52.010;4.446;2022-10-31T06:59:50;37.92;;;25.40;;
46563;SDS011;32291;52.010;4.446;2022-10-31T07:01:00;31.15;;;23.08;;
46563;SDS011;32291;52.010;4.446;2022-10-31T07:02:11;32.00;;;23.50;;
46563;SDS011;32291;52.010;4.446;2022-10-31T07:03:18;36.08;;;25.52;;
46563;SDS011;32291;52.010;4.446;2022-10-31T07:04:26;34.05;;;25.30;;
46563;SDS011;32291;52.010;4.446;2022-10-31T07:05:33;39.92;;;27.58;;
46563;SDS011;32291;52.010;4.446;2022-10-31T07:06:40;35.70;;;24.88;;
46563;SDS011;32291;52.010;4.446;2022-10-31T07:07:45;40.22;;;27.63;;
46563;SDS011;32291;52.010;4.446;2022-10-31T07:08:59;40.33;;;28.77;;
46563;SDS011;32291;52.010;4.446;2022-10-31T07:10:07;44.08;;;28.77;;
46563;SDS011;32291;52.010;4.446;2022-10-31T07:11:14;34.28;;;25.60;;
46563;SDS011;32291;52.010;4.446;2022-10-31T07:12:22;40.28;;;25.58;;
46563;SDS011;32291;52.010;4.446;2022-10-31T07:13:29;35.22;;;25.23;;
46563;SDS011;32291;52.010;4.446;2022-10-31T07:14:31;38.03;;;27.67;;
46563;SDS011;32291;52.010;4.446;2022-10-31T07:15:39;40.92;;;28.58;;
46563;SDS011;32291;52.010;4.446;2022-10-31T07:16:51;37.15;;;27.10;;
46563;SDS011;32291;52.010;4.446;2022-10-31T07:18:02;35.33;;;26.23;;
46563;SDS011;32291;52.010;4.446;2022-10-31T07:19:08;38.10;;;27.90;;
46563;SDS011;32291;52.010;4.446;2022-10-31T07:20:16;32.30;;;24.73;;
46563;SDS011;32291;52.010;4.446;2022-10-31T07:21:19;31.80;;;24.13;;
46563;SDS011;32291;52.010;4.446;2022-10-31T07:22:35;35.40;;;26.15;;
46563;SDS011;32291;52.010;4.446;2022-10-31T07:23:43;31.95;;;24.55;;
46563;SDS011;32291;52.010;4.446;2022-10-31T07:24:54;30.83;;;24.60;;
46563;SDS011;32291;52.010;4.446;2022-10-31T07:26:01;39.63;;;25.08;;
46563;SDS011;32291;52.010;4.446;2022-10-31T07:27:09;31.38;;;25.25;;